Farrell, Pennsylvania
Current Conditions -  °F | °C
As of 11:51 PM on Wednesday 22 Oct 2014 (Local Time) from KYNG Reporting Station
Overcast Overcast  
Wind Chill: 42°   Ceiling: 4100
Heat Index: 44°   Visibility: 10mi
Dew Point: 41°   Wind: 5mph
Humidity: 89%   Direction: 320°NW
Pressure: 30.19"   Gusts: NA
Location:  41.22°N, 80.51°W
Report Text: KYNG 230351Z 32004KT 10SM FEW017 OVC041 07/05 A3019 RMK AO2 SLP229 T00670050
Loading
Personal Weather Stations






























Interactive Weather Map
Tropical Storm Tracking
New forecast layout! Learn more

10-Day Weather Forecast

Advertisements
Track Severe Weather on mobile